Terminal Aerodrome Forecast
Issued by NWS

Home | Current Version | Previous Version | Graphics & Text | Print | Product List | Glossary On
Versions: 1 2 3 4 5 6 7 8 9 10 11 12 13
000
FTUS43 KIWX 162323
TAFSBN
TAF
KSBN 162323Z 1700/1724 15007KT P6SM BKN150
     FM171100 17006KT 5SM BR SCT130
     FM171400 20007KT P6SM FEW150=

USA.gov is the U.S. government's official web portal to all federal, state and local government web resources and services.